Terminal Aerodrome Forecast
Issued by NWS

Current Version | Previous Version | Text Only | Print | Product List | Glossary On
Versions: 1 2 3 4 5 6 7 8 9 10 11 12 13
000
FTUS42 KTBW 291721
TAFRSW
TAF
KRSW 291721Z 2918/3018 21008KT P6SM SCT060
     FM292000 27010KT P6SM FEW060 SCT250
     FM300100 VRB04KT P6SM SCT250
     FM301400 16007KT P6SM SCT250=

USA.gov is the U.S. government's official web portal to all federal, state and local government web resources and services.